sensor_id;sensor_type;location;lat;lon;timestamp;temperature;humidity
15341;DHT22;7770;52.158;5.372;2024-01-25T00:00:06;7.20;99.90
15341;DHT22;7770;52.158;5.372;2024-01-25T00:02:52;7.30;99.90
15341;DHT22;7770;52.158;5.372;2024-01-25T00:05:38;7.30;99.90
15341;DHT22;7770;52.158;5.372;2024-01-25T00:08:24;7.30;99.90
15341;DHT22;7770;52.158;5.372;2024-01-25T00:11:10;7.30;99.90
15341;DHT22;7770;52.158;5.372;2024-01-25T00:13:57;7.20;99.90
15341;DHT22;7770;52.158;5.372;2024-01-25T00:16:43;7.20;99.90
15341;DHT22;7770;52.158;5.372;2024-01-25T00:19:29;7.10;99.90
15341;DHT22;7770;52.158;5.372;2024-01-25T00:22:15;7.00;99.90
15341;DHT22;7770;52.158;5.372;2024-01-25T00:25:01;7.00;99.90
15341;DHT22;7770;52.158;5.372;2024-01-25T00:27:47;7.00;99.90
15341;DHT22;7770;52.158;5.372;2024-01-25T00:30:33;7.00;99.90
15341;DHT22;7770;52.158;5.372;2024-01-25T00:33:19;6.90;99.90
15341;DHT22;7770;52.158;5.372;2024-01-25T00:36:06;6.90;99.90
15341;DHT22;7770;52.158;5.372;2024-01-25T00:38:53;6.90;99.90
15341;DHT22;7770;52.158;5.372;2024-01-25T00:41:40;6.80;99.90
15341;DHT22;7770;52.158;5.372;2024-01-25T00:44:28;6.80;99.90
15341;DHT22;7770;52.158;5.372;2024-01-25T00:47:14;6.70;99.90
15341;DHT22;7770;52.158;5.372;2024-01-25T00:50:00;6.80;99.90
15341;DHT22;7770;52.158;5.372;2024-01-25T00:52:47;6.80;99.90
15341;DHT22;7770;52.158;5.372;2024-01-25T00:55:34;6.70;99.90
15341;DHT22;7770;52.158;5.372;2024-01-25T00:58:20;6.70;99.90
15341;DHT22;7770;52.158;5.372;2024-01-25T01:01:07;6.60;99.90
15341;DHT22;7770;52.158;5.372;2024-01-25T01:03:55;6.60;99.90
15341;DHT22;7770;52.158;5.372;2024-01-25T01:06:44;6.50;99.90
15341;DHT22;7770;52.158;5.372;2024-01-25T01:09:30;6.50;99.90
15341;DHT22;7770;52.158;5.372;2024-01-25T01:12:16;6.50;99.90
15341;DHT22;7770;52.158;5.372;2024-01-25T01:15:03;6.40;99.90
15341;DHT22;7770;52.158;5.372;2024-01-25T01:17:49;6.30;99.90
15341;DHT22;7770;52.158;5.372;2024-01-25T01:20:35;6.30;99.90
15341;DHT22;7770;52.158;5.372;2024-01-25T01:23:21;6.20;99.90
15341;DHT22;7770;52.158;5.372;2024-01-25T01:26:08;6.20;99.90
15341;DHT22;7770;52.158;5.372;2024-01-25T01:28:54;6.10;99.90
15341;DHT22;7770;52.158;5.372;2024-01-25T01:31:40;6.00;99.90
15341;DHT22;7770;52.158;5.372;2024-01-25T01:34:26;5.90;99.90
15341;DHT22;7770;52.158;5.372;2024-01-25T01:37:12;5.80;99.90
15341;DHT22;7770;52.158;5.372;2024-01-25T01:39:58;5.80;99.90
15341;DHT22;7770;52.158;5.372;2024-01-25T01:42:45;5.80;99.90
15341;DHT22;7770;52.158;5.372;2024-01-25T01:45:31;5.80;99.90
15341;DHT22;7770;52.158;5.372;2024-01-25T01:48:17;5.80;99.90
15341;DHT22;7770;52.158;5.372;2024-01-25T01:51:03;5.70;99.90
15341;DHT22;7770;52.158;5.372;2024-01-25T01:53:50;5.70;99.90
15341;DHT22;7770;52.158;5.372;2024-01-25T01:56:36;5.60;99.90
15341;DHT22;7770;52.158;5.372;2024-01-25T01:59:22;5.60;99.90
15341;DHT22;7770;52.158;5.372;2024-01-25T02:02:11;5.50;99.90
15341;DHT22;7770;52.158;5.372;2024-01-25T02:04:57;5.50;99.90
15341;DHT22;7770;52.158;5.372;2024-01-25T02:07:43;5.40;99.90
15341;DHT22;7770;52.158;5.372;2024-01-25T02:10:29;5.40;99.90
15341;DHT22;7770;52.158;5.372;2024-01-25T02:13:15;5.40;99.90
15341;DHT22;7770;52.158;5.372;2024-01-25T02:16:01;5.30;99.90
15341;DHT22;7770;52.158;5.372;2024-01-25T02:18:47;5.30;99.90
15341;DHT22;7770;52.158;5.372;2024-01-25T02:21:33;5.20;99.90
15341;DHT22;7770;52.158;5.372;2024-01-25T02:24:19;5.20;99.90
15341;DHT22;7770;52.158;5.372;2024-01-25T02:27:05;5.10;99.90
15341;DHT22;7770;52.158;5.372;2024-01-25T02:29:51;5.10;99.90
15341;DHT22;7770;52.158;5.372;2024-01-25T02:32:37;5.10;99.90
15341;DHT22;7770;52.158;5.372;2024-01-25T02:35:23;5.10;99.90
15341;DHT22;7770;52.158;5.372;2024-01-25T02:38:09;5.00;99.90
15341;DHT22;7770;52.158;5.372;2024-01-25T02:40:55;5.00;99.90
15341;DHT22;7770;52.158;5.372;2024-01-25T02:43:41;5.00;99.90
15341;DHT22;7770;52.158;5.372;2024-01-25T02:46:27;5.00;99.90
15341;DHT22;7770;52.158;5.372;2024-01-25T02:49:13;4.90;99.90
15341;DHT22;7770;52.158;5.372;2024-01-25T02:51:59;4.90;99.90
15341;DHT22;7770;52.158;5.372;2024-01-25T02:54:45;4.90;99.90
15341;DHT22;7770;52.158;5.372;2024-01-25T02:57:31;4.80;99.90
15341;DHT22;7770;52.158;5.372;2024-01-25T03:00:17;4.90;99.90
15341;DHT22;7770;52.158;5.372;2024-01-25T03:03:04;4.80;99.90
15341;DHT22;7770;52.158;5.372;2024-01-25T03:05:51;4.70;99.90
15341;DHT22;7770;52.158;5.372;2024-01-25T03:08:37;4.70;99.90
15341;DHT22;7770;52.158;5.372;2024-01-25T03:11:23;4.70;99.90
15341;DHT22;7770;52.158;5.372;2024-01-25T03:14:09;4.60;99.90
15341;DHT22;7770;52.158;5.372;2024-01-25T03:16:55;4.50;99.90
15341;DHT22;7770;52.158;5.372;2024-01-25T03:19:41;4.50;99.90
15341;DHT22;7770;52.158;5.372;2024-01-25T03:22:27;4.50;99.90
15341;DHT22;7770;52.158;5.372;2024-01-25T03:25:13;4.50;99.90
15341;DHT22;7770;52.158;5.372;2024-01-25T03:27:59;4.40;99.90
15341;DHT22;7770;52.158;5.372;2024-01-25T03:30:45;4.50;99.90
15341;DHT22;7770;52.158;5.372;2024-01-25T03:33:32;4.40;99.90
15341;DHT22;7770;52.158;5.372;2024-01-25T03:36:18;4.40;99.90
15341;DHT22;7770;52.158;5.372;2024-01-25T03:39:04;4.40;99.90
15341;DHT22;7770;52.158;5.372;2024-01-25T03:41:50;4.30;99.90
15341;DHT22;7770;52.158;5.372;2024-01-25T03:44:36;4.30;99.90
15341;DHT22;7770;52.158;5.372;2024-01-25T03:47:22;4.40;99.90
15341;DHT22;7770;52.158;5.372;2024-01-25T03:50:08;4.30;99.90
15341;DHT22;7770;52.158;5.372;2024-01-25T03:52:54;4.30;99.90
15341;DHT22;7770;52.158;5.372;2024-01-25T03:55:41;4.30;99.90
15341;DHT22;7770;52.158;5.372;2024-01-25T03:58:28;4.30;99.90
15341;DHT22;7770;52.158;5.372;2024-01-25T04:01:14;4.30;99.90
15341;DHT22;7770;52.158;5.372;2024-01-25T04:04:00;4.30;99.90
15341;DHT22;7770;52.158;5.372;2024-01-25T04:06:46;4.30;99.90
15341;DHT22;7770;52.158;5.372;2024-01-25T04:09:32;4.30;99.90
15341;DHT22;7770;52.158;5.372;2024-01-25T04:12:18;4.30;99.90
15341;DHT22;7770;52.158;5.372;2024-01-25T04:15:05;4.30;99.90
15341;DHT22;7770;52.158;5.372;2024-01-25T04:17:51;4.30;99.90
15341;DHT22;7770;52.158;5.372;2024-01-25T04:20:41;4.30;99.90
15341;DHT22;7770;52.158;5.372;2024-01-25T04:23:27;4.30;99.90
15341;DHT22;7770;52.158;5.372;2024-01-25T04:26:14;4.30;99.90
15341;DHT22;7770;52.158;5.372;2024-01-25T04:29:00;4.30;99.90
15341;DHT22;7770;52.158;5.372;2024-01-25T04:31:46;4.30;99.90
15341;DHT22;7770;52.158;5.372;2024-01-25T04:34:34;4.20;99.90
15341;DHT22;7770;52.158;5.372;2024-01-25T04:37:21;4.30;99.90
15341;DHT22;7770;52.158;5.372;2024-01-25T04:40:07;4.30;99.90
15341;DHT22;7770;52.158;5.372;2024-01-25T04:42:54;4.20;99.90
15341;DHT22;7770;52.158;5.372;2024-01-25T04:45:40;4.20;99.90
15341;DHT22;7770;52.158;5.372;2024-01-25T04:48:26;4.20;99.90
15341;DHT22;7770;52.158;5.372;2024-01-25T04:51:19;4.20;99.90
15341;DHT22;7770;52.158;5.372;2024-01-25T04:54:08;4.20;99.90
15341;DHT22;7770;52.158;5.372;2024-01-25T04:56:58;4.20;99.90
15341;DHT22;7770;52.158;5.372;2024-01-25T04:59:44;4.20;99.90
15341;DHT22;7770;52.158;5.372;2024-01-25T05:02:30;4.20;99.90
15341;DHT22;7770;52.158;5.372;2024-01-25T05:05:16;4.20;99.90
15341;DHT22;7770;52.158;5.372;2024-01-25T05:08:02;4.20;99.90
15341;DHT22;7770;52.158;5.372;2024-01-25T05:10:48;4.20;99.90
15341;DHT22;7770;52.158;5.372;2024-01-25T05:13:34;4.20;99.90
15341;DHT22;7770;52.158;5.372;2024-01-25T05:16:20;4.10;99.90
15341;DHT22;7770;52.158;5.372;2024-01-25T05:19:06;4.20;99.90
15341;DHT22;7770;52.158;5.372;2024-01-25T05:21:52;4.10;99.90
15341;DHT22;7770;52.158;5.372;2024-01-25T05:24:38;4.10;99.90
15341;DHT22;7770;52.158;5.372;2024-01-25T05:27:24;4.10;99.90
15341;DHT22;7770;52.158;5.372;2024-01-25T05:30:10;4.10;99.90
15341;DHT22;7770;52.158;5.372;2024-01-25T05:32:57;4.00;99.90
15341;DHT22;7770;52.158;5.372;2024-01-25T05:35:43;4.00;99.90
15341;DHT22;7770;52.158;5.372;2024-01-25T05:38:28;4.00;99.90
15341;DHT22;7770;52.158;5.372;2024-01-25T05:41:14;3.90;99.90
15341;DHT22;7770;52.158;5.372;2024-01-25T05:44:00;4.00;99.90
15341;DHT22;7770;52.158;5.372;2024-01-25T05:46:46;4.00;99.90
15341;DHT22;7770;52.158;5.372;2024-01-25T05:49:32;4.00;99.90
15341;DHT22;7770;52.158;5.372;2024-01-25T05:52:18;3.90;99.90
15341;DHT22;7770;52.158;5.372;2024-01-25T05:55:07;3.90;99.90
15341;DHT22;7770;52.158;5.372;2024-01-25T05:57:53;3.90;99.90
15341;DHT22;7770;52.158;5.372;2024-01-25T06:00:39;3.90;99.90
15341;DHT22;7770;52.158;5.372;2024-01-25T06:03:25;3.90;99.90
15341;DHT22;7770;52.158;5.372;2024-01-25T06:06:11;4.00;99.90
15341;DHT22;7770;52.158;5.372;2024-01-25T06:08:57;4.10;99.90
15341;DHT22;7770;52.158;5.372;2024-01-25T06:11:43;4.30;99.90
15341;DHT22;7770;52.158;5.372;2024-01-25T06:14:30;4.40;99.90
15341;DHT22;7770;52.158;5.372;2024-01-25T06:17:16;4.30;99.90
15341;DHT22;7770;52.158;5.372;2024-01-25T06:20:02;4.20;99.90
15341;DHT22;7770;52.158;5.372;2024-01-25T06:22:49;4.00;99.90
15341;DHT22;7770;52.158;5.372;2024-01-25T06:25:35;3.90;99.90
15341;DHT22;7770;52.158;5.372;2024-01-25T06:28:21;4.00;99.90
15341;DHT22;7770;52.158;5.372;2024-01-25T06:31:07;4.00;99.90
15341;DHT22;7770;52.158;5.372;2024-01-25T06:33:53;3.90;99.90
15341;DHT22;7770;52.158;5.372;2024-01-25T06:36:40;3.90;99.90
15341;DHT22;7770;52.158;5.372;2024-01-25T06:39:26;3.90;99.90
15341;DHT22;7770;52.158;5.372;2024-01-25T06:42:12;3.90;99.90
15341;DHT22;7770;52.158;5.372;2024-01-25T06:44:58;3.90;99.90
15341;DHT22;7770;52.158;5.372;2024-01-25T06:47:44;4.00;99.90
15341;DHT22;7770;52.158;5.372;2024-01-25T06:50:30;4.00;99.90
15341;DHT22;7770;52.158;5.372;2024-01-25T06:53:16;4.00;99.90
15341;DHT22;7770;52.158;5.372;2024-01-25T06:56:02;4.00;99.90
15341;DHT22;7770;52.158;5.372;2024-01-25T06:58:49;4.00;99.90
15341;DHT22;7770;52.158;5.372;2024-01-25T07:01:35;4.00;99.90
15341;DHT22;7770;52.158;5.372;2024-01-25T07:04:21;4.00;99.90
15341;DHT22;7770;52.158;5.372;2024-01-25T07:07:07;4.00;99.90
15341;DHT22;7770;52.158;5.372;2024-01-25T07:09:53;4.00;99.90
15341;DHT22;7770;52.158;5.372;2024-01-25T07:12:39;4.10;99.90
15341;DHT22;7770;52.158;5.372;2024-01-25T07:15:25;4.10;99.90
15341;DHT22;7770;52.158;5.372;2024-01-25T07:18:11;4.10;99.90
15341;DHT22;7770;52.158;5.372;2024-01-25T07:20:57;4.10;99.90
15341;DHT22;7770;52.158;5.372;2024-01-25T07:23:43;4.20;99.90
15341;DHT22;7770;52.158;5.372;2024-01-25T07:26:29;4.20;99.90
15341;DHT22;7770;52.158;5.372;2024-01-25T07:29:15;4.30;99.90
15341;DHT22;7770;52.158;5.372;2024-01-25T07:32:02;4.30;99.90
15341;DHT22;7770;52.158;5.372;2024-01-25T07:34:48;4.30;99.90
15341;DHT22;7770;52.158;5.372;2024-01-25T07:37:35;4.30;99.90
15341;DHT22;7770;52.158;5.372;2024-01-25T07:40:21;4.30;99.90
15341;DHT22;7770;52.158;5.372;2024-01-25T07:43:07;4.40;99.90
15341;DHT22;7770;52.158;5.372;2024-01-25T07:45:53;4.40;99.90
15341;DHT22;7770;52.158;5.372;2024-01-25T07:48:40;4.40;99.90
15341;DHT22;7770;52.158;5.372;2024-01-25T07:51:26;4.40;99.90
15341;DHT22;7770;52.158;5.372;2024-01-25T07:54:14;4.40;99.90
15341;DHT22;7770;52.158;5.372;2024-01-25T07:57:00;4.40;99.90
15341;DHT22;7770;52.158;5.372;2024-01-25T07:59:46;4.40;99.90
15341;DHT22;7770;52.158;5.372;2024-01-25T08:02:32;4.50;99.90
15341;DHT22;7770;52.158;5.372;2024-01-25T08:05:18;4.50;99.90
15341;DHT22;7770;52.158;5.372;2024-01-25T08:08:04;4.60;99.90
15341;DHT22;7770;52.158;5.372;2024-01-25T08:10:51;4.60;99.90
15341;DHT22;7770;52.158;5.372;2024-01-25T08:13:37;4.60;99.90
15341;DHT22;7770;52.158;5.372;2024-01-25T08:16:23;4.70;99.90
15341;DHT22;7770;52.158;5.372;2024-01-25T08:19:09;4.80;99.90
15341;DHT22;7770;52.158;5.372;2024-01-25T08:21:55;4.80;99.90
15341;DHT22;7770;52.158;5.372;2024-01-25T08:24:41;4.90;99.90
15341;DHT22;7770;52.158;5.372;2024-01-25T08:27:27;4.90;99.90
15341;DHT22;7770;52.158;5.372;2024-01-25T08:30:13;5.00;99.90
15341;DHT22;7770;52.158;5.372;2024-01-25T08:32:59;5.00;99.90
15341;DHT22;7770;52.158;5.372;2024-01-25T08:35:45;5.10;99.90
15341;DHT22;7770;52.158;5.372;2024-01-25T08:38:31;5.30;99.90
15341;DHT22;7770;52.158;5.372;2024-01-25T08:41:17;5.40;99.90
15341;DHT22;7770;52.158;5.372;2024-01-25T08:44:03;5.50;99.90
15341;DHT22;7770;52.158;5.372;2024-01-25T08:46:49;5.80;99.90
15341;DHT22;7770;52.158;5.372;2024-01-25T08:49:38;6.00;99.90
15341;DHT22;7770;52.158;5.372;2024-01-25T08:52:24;6.20;99.90
15341;DHT22;7770;52.158;5.372;2024-01-25T08:55:10;6.30;99.90
15341;DHT22;7770;52.158;5.372;2024-01-25T08:57:56;6.30;99.90
15341;DHT22;7770;52.158;5.372;2024-01-25T09:00:42;6.40;99.90
15341;DHT22;7770;52.158;5.372;2024-01-25T09:03:28;6.50;99.90
15341;DHT22;7770;52.158;5.372;2024-01-25T09:06:14;6.70;99.90
15341;DHT22;7770;52.158;5.372;2024-01-25T09:09:00;6.90;99.90
15341;DHT22;7770;52.158;5.372;2024-01-25T09:11:46;7.10;99.90
15341;DHT22;7770;52.158;5.372;2024-01-25T09:14:32;7.40;99.90
15341;DHT22;7770;52.158;5.372;2024-01-25T09:17:19;7.40;99.90
15341;DHT22;7770;52.158;5.372;2024-01-25T09:20:08;7.30;99.90
15341;DHT22;7770;52.158;5.372;2024-01-25T09:22:54;7.20;99.90
15341;DHT22;7770;52.158;5.372;2024-01-25T09:25:40;7.10;99.90
15341;DHT22;7770;52.158;5.372;2024-01-25T09:28:27;7.10;99.90
15341;DHT22;7770;52.158;5.372;2024-01-25T09:31:13;7.10;99.90
15341;DHT22;7770;52.158;5.372;2024-01-25T09:33:59;7.20;99.90
15341;DHT22;7770;52.158;5.372;2024-01-25T09:36:45;7.20;99.90
15341;DHT22;7770;52.158;5.372;2024-01-25T09:39:32;7.20;99.90
15341;DHT22;7770;52.158;5.372;2024-01-25T09:42:19;7.30;99.90
15341;DHT22;7770;52.158;5.372;2024-01-25T09:45:06;7.40;99.90
15341;DHT22;7770;52.158;5.372;2024-01-25T09:47:53;7.50;99.90
15341;DHT22;7770;52.158;5.372;2024-01-25T09:50:39;7.60;99.90
15341;DHT22;7770;52.158;5.372;2024-01-25T09:53:25;7.70;99.90
15341;DHT22;7770;52.158;5.372;2024-01-25T09:56:12;7.70;99.90
15341;DHT22;7770;52.158;5.372;2024-01-25T09:58:59;8.00;99.90
15341;DHT22;7770;52.158;5.372;2024-01-25T10:01:46;8.30;99.90
15341;DHT22;7770;52.158;5.372;2024-01-25T10:04:34;8.90;99.90
15341;DHT22;7770;52.158;5.372;2024-01-25T10:07:57;9.30;99.90
15341;DHT22;7770;52.158;5.372;2024-01-25T10:10:46;9.40;99.90
15341;DHT22;7770;52.158;5.372;2024-01-25T10:13:32;9.40;99.90
15341;DHT22;7770;52.158;5.372;2024-01-25T10:16:18;9.50;99.90
15341;DHT22;7770;52.158;5.372;2024-01-25T10:19:06;9.50;99.90
15341;DHT22;7770;52.158;5.372;2024-01-25T10:21:56;9.60;99.90
15341;DHT22;7770;52.158;5.372;2024-01-25T10:24:43;9.60;99.90
15341;DHT22;7770;52.158;5.372;2024-01-25T10:27:29;9.70;99.90
15341;DHT22;7770;52.158;5.372;2024-01-25T10:30:15;9.90;99.90
15341;DHT22;7770;52.158;5.372;2024-01-25T10:33:02;10.00;99.90
15341;DHT22;7770;52.158;5.372;2024-01-25T10:35:50;9.90;99.90
15341;DHT22;7770;52.158;5.372;2024-01-25T10:38:38;9.90;99.90
15341;DHT22;7770;52.158;5.372;2024-01-25T10:41:24;9.90;99.90
15341;DHT22;7770;52.158;5.372;2024-01-25T10:44:11;9.80;99.90
15341;DHT22;7770;52.158;5.372;2024-01-25T10:46:57;9.60;99.90
15341;DHT22;7770;52.158;5.372;2024-01-25T10:49:46;9.50;99.90
15341;DHT22;7770;52.158;5.372;2024-01-25T10:52:33;9.60;99.90
15341;DHT22;7770;52.158;5.372;2024-01-25T10:55:19;9.70;99.90
15341;DHT22;7770;52.158;5.372;2024-01-25T10:58:07;9.60;99.90
15341;DHT22;7770;52.158;5.372;2024-01-25T11:00:57;9.60;99.90
15341;DHT22;7770;52.158;5.372;2024-01-25T11:03:46;9.70;99.90
15341;DHT22;7770;52.158;5.372;2024-01-25T11:06:32;9.70;99.90
15341;DHT22;7770;52.158;5.372;2024-01-25T11:09:20;9.70;99.90
15341;DHT22;7770;52.158;5.372;2024-01-25T11:12:13;9.60;99.90
15341;DHT22;7770;52.158;5.372;2024-01-25T11:15:06;9.50;99.90
15341;DHT22;7770;52.158;5.372;2024-01-25T11:17:54;9.50;99.90
15341;DHT22;7770;52.158;5.372;2024-01-25T11:20:40;9.50;99.90
15341;DHT22;7770;52.158;5.372;2024-01-25T11:23:31;9.40;99.90
15341;DHT22;7770;52.158;5.372;2024-01-25T11:26:18;9.20;99.90
15341;DHT22;7770;52.158;5.372;2024-01-25T11:29:04;9.20;99.90
15341;DHT22;7770;52.158;5.372;2024-01-25T11:31:51;9.30;99.90
15341;DHT22;7770;52.158;5.372;2024-01-25T11:34:37;9.30;99.90
15341;DHT22;7770;52.158;5.372;2024-01-25T11:37:23;9.30;99.90
15341;DHT22;7770;52.158;5.372;2024-01-25T11:40:10;9.30;99.90
15341;DHT22;7770;52.158;5.372;2024-01-25T11:42:57;9.30;99.90
15341;DHT22;7770;52.158;5.372;2024-01-25T11:45:43;9.30;99.90
15341;DHT22;7770;52.158;5.372;2024-01-25T11:48:29;9.40;99.90
15341;DHT22;7770;52.158;5.372;2024-01-25T11:51:15;9.50;99.90
15341;DHT22;7770;52.158;5.372;2024-01-25T11:54:01;9.60;99.90
15341;DHT22;7770;52.158;5.372;2024-01-25T11:56:50;9.60;99.90
15341;DHT22;7770;52.158;5.372;2024-01-25T11:59:36;9.50;99.90
15341;DHT22;7770;52.158;5.372;2024-01-25T12:02:23;9.40;99.90
15341;DHT22;7770;52.158;5.372;2024-01-25T12:05:10;9.40;99.90
15341;DHT22;7770;52.158;5.372;2024-01-25T12:07:58;9.40;99.90
15341;DHT22;7770;52.158;5.372;2024-01-25T12:10:44;9.40;99.90
15341;DHT22;7770;52.158;5.372;2024-01-25T12:13:35;9.20;99.90
15341;DHT22;7770;52.158;5.372;2024-01-25T12:16:21;9.20;99.90
15341;DHT22;7770;52.158;5.372;2024-01-25T12:19:07;9.10;99.90
15341;DHT22;7770;52.158;5.372;2024-01-25T12:21:53;9.10;99.90
15341;DHT22;7770;52.158;5.372;2024-01-25T12:24:40;9.20;99.90
15341;DHT22;7770;52.158;5.372;2024-01-25T12:27:26;9.30;99.90
15341;DHT22;7770;52.158;5.372;2024-01-25T12:30:12;9.30;99.90
15341;DHT22;7770;52.158;5.372;2024-01-25T12:32:58;9.40;99.90
15341;DHT22;7770;52.158;5.372;2024-01-25T12:35:44;9.40;99.90
15341;DHT22;7770;52.158;5.372;2024-01-25T12:38:30;9.40;99.90
15341;DHT22;7770;52.158;5.372;2024-01-25T12:41:19;9.40;99.90
15341;DHT22;7770;52.158;5.372;2024-01-25T12:44:05;9.50;99.90
15341;DHT22;7770;52.158;5.372;2024-01-25T12:46:51;9.50;99.90
15341;DHT22;7770;52.158;5.372;2024-01-25T12:49:37;9.60;99.90
15341;DHT22;7770;52.158;5.372;2024-01-25T12:52:23;9.60;99.90
15341;DHT22;7770;52.158;5.372;2024-01-25T12:55:09;9.70;99.90
15341;DHT22;7770;52.158;5.372;2024-01-25T12:57:58;9.70;99.90
15341;DHT22;7770;52.158;5.372;2024-01-25T13:00:45;9.60;99.90
15341;DHT22;7770;52.158;5.372;2024-01-25T13:03:31;9.50;99.90
15341;DHT22;7770;52.158;5.372;2024-01-25T13:06:17;9.50;99.90
15341;DHT22;7770;52.158;5.372;2024-01-25T13:09:03;9.50;99.90
15341;DHT22;7770;52.158;5.372;2024-01-25T13:11:49;9.60;99.90
15341;DHT22;7770;52.158;5.372;2024-01-25T13:14:37;9.60;99.90
15341;DHT22;7770;52.158;5.372;2024-01-25T13:17:24;9.70;99.90
15341;DHT22;7770;52.158;5.372;2024-01-25T13:20:11;9.70;99.90
15341;DHT22;7770;52.158;5.372;2024-01-25T13:22:57;9.80;99.90
15341;DHT22;7770;52.158;5.372;2024-01-25T13:25:43;9.70;99.90
15341;DHT22;7770;52.158;5.372;2024-01-25T13:28:29;9.70;99.90
15341;DHT22;7770;52.158;5.372;2024-01-25T13:31:15;9.70;99.90
15341;DHT22;7770;52.158;5.372;2024-01-25T13:34:01;9.60;99.90
15341;DHT22;7770;52.158;5.372;2024-01-25T13:36:47;9.50;99.90
15341;DHT22;7770;52.158;5.372;2024-01-25T13:39:33;9.60;99.90
15341;DHT22;7770;52.158;5.372;2024-01-25T13:42:19;9.50;99.90
15341;DHT22;7770;52.158;5.372;2024-01-25T13:45:06;9.40;99.90
15341;DHT22;7770;52.158;5.372;2024-01-25T13:47:53;9.40;99.90
15341;DHT22;7770;52.158;5.372;2024-01-25T13:50:39;9.40;99.90
15341;DHT22;7770;52.158;5.372;2024-01-25T13:53:25;9.30;99.90
15341;DHT22;7770;52.158;5.372;2024-01-25T13:56:11;9.30;99.90
15341;DHT22;7770;52.158;5.372;2024-01-25T13:58:57;9.30;99.90
15341;DHT22;7770;52.158;5.372;2024-01-25T14:01:43;9.10;99.90
15341;DHT22;7770;52.158;5.372;2024-01-25T14:04:29;9.00;99.90
15341;DHT22;7770;52.158;5.372;2024-01-25T14:07:15;9.10;99.90
15341;DHT22;7770;52.158;5.372;2024-01-25T14:10:04;9.10;99.90
15341;DHT22;7770;52.158;5.372;2024-01-25T14:12:51;9.00;99.90
15341;DHT22;7770;52.158;5.372;2024-01-25T14:15:37;9.00;99.90
15341;DHT22;7770;52.158;5.372;2024-01-25T14:18:23;8.90;99.90
15341;DHT22;7770;52.158;5.372;2024-01-25T14:21:09;8.90;99.90
15341;DHT22;7770;52.158;5.372;2024-01-25T14:23:55;8.80;99.90
15341;DHT22;7770;52.158;5.372;2024-01-25T14:26:41;8.90;99.90
15341;DHT22;7770;52.158;5.372;2024-01-25T14:29:27;8.90;99.90
15341;DHT22;7770;52.158;5.372;2024-01-25T14:32:17;8.90;99.90
15341;DHT22;7770;52.158;5.372;2024-01-25T14:35:05;8.90;99.90
15341;DHT22;7770;52.158;5.372;2024-01-25T14:37:51;8.90;99.90
15341;DHT22;7770;52.158;5.372;2024-01-25T14:40:37;9.00;99.90
15341;DHT22;7770;52.158;5.372;2024-01-25T14:43:23;8.90;99.90
15341;DHT22;7770;52.158;5.372;2024-01-25T14:46:10;8.80;99.90
15341;DHT22;7770;52.158;5.372;2024-01-25T14:48:56;8.70;99.90
15341;DHT22;7770;52.158;5.372;2024-01-25T14:51:43;8.70;99.90
15341;DHT22;7770;52.158;5.372;2024-01-25T14:54:29;8.70;99.90
15341;DHT22;7770;52.158;5.372;2024-01-25T14:57:15;8.60;99.90
15341;DHT22;7770;52.158;5.372;2024-01-25T15:00:02;8.60;99.90
15341;DHT22;7770;52.158;5.372;2024-01-25T15:02:51;8.50;99.90
15341;DHT22;7770;52.158;5.372;2024-01-25T15:05:37;8.40;99.90
15341;DHT22;7770;52.158;5.372;2024-01-25T15:08:23;8.30;99.90
15341;DHT22;7770;52.158;5.372;2024-01-25T15:11:09;8.20;99.90
15341;DHT22;7770;52.158;5.372;2024-01-25T15:13:55;8.20;99.90
15341;DHT22;7770;52.158;5.372;2024-01-25T15:16:41;8.10;99.90
15341;DHT22;7770;52.158;5.372;2024-01-25T15:19:27;8.00;99.90
15341;DHT22;7770;52.158;5.372;2024-01-25T15:22:13;8.00;99.90
15341;DHT22;7770;52.158;5.372;2024-01-25T15:24:59;8.00;99.90
15341;DHT22;7770;52.158;5.372;2024-01-25T15:27:45;8.00;99.90
15341;DHT22;7770;52.158;5.372;2024-01-25T15:30:31;7.90;99.90
15341;DHT22;7770;52.158;5.372;2024-01-25T15:33:17;7.90;99.90
15341;DHT22;7770;52.158;5.372;2024-01-25T15:36:03;7.90;99.90
15341;DHT22;7770;52.158;5.372;2024-01-25T15:38:50;7.90;99.90
15341;DHT22;7770;52.158;5.372;2024-01-25T15:41:36;7.90;99.90
15341;DHT22;7770;52.158;5.372;2024-01-25T15:44:22;7.90;99.90
15341;DHT22;7770;52.158;5.372;2024-01-25T15:47:08;7.80;99.90
15341;DHT22;7770;52.158;5.372;2024-01-25T15:49:54;7.80;99.90
15341;DHT22;7770;52.158;5.372;2024-01-25T15:52:40;7.80;99.90
15341;DHT22;7770;52.158;5.372;2024-01-25T15:55:27;7.80;99.90
15341;DHT22;7770;52.158;5.372;2024-01-25T15:58:12;7.80;99.90
15341;DHT22;7770;52.158;5.372;2024-01-25T16:00:59;7.80;99.90
15341;DHT22;7770;52.158;5.372;2024-01-25T16:03:44;7.80;99.90
15341;DHT22;7770;52.158;5.372;2024-01-25T16:06:30;7.80;99.90
15341;DHT22;7770;52.158;5.372;2024-01-25T16:09:16;7.80;99.90
15341;DHT22;7770;52.158;5.372;2024-01-25T16:12:03;7.80;99.90
15341;DHT22;7770;52.158;5.372;2024-01-25T16:14:52;7.80;99.90
15341;DHT22;7770;52.158;5.372;2024-01-25T16:17:41;7.80;99.90
15341;DHT22;7770;52.158;5.372;2024-01-25T16:20:28;7.80;99.90
15341;DHT22;7770;52.158;5.372;2024-01-25T16:23:14;7.80;99.90
15341;DHT22;7770;52.158;5.372;2024-01-25T16:26:01;7.90;99.90
15341;DHT22;7770;52.158;5.372;2024-01-25T16:28:47;7.80;99.90
15341;DHT22;7770;52.158;5.372;2024-01-25T16:31:33;7.80;99.90
15341;DHT22;7770;52.158;5.372;2024-01-25T16:34:19;7.80;99.90
15341;DHT22;7770;52.158;5.372;2024-01-25T16:37:05;7.80;99.90
15341;DHT22;7770;52.158;5.372;2024-01-25T16:39:51;7.90;99.90
15341;DHT22;7770;52.158;5.372;2024-01-25T16:42:37;7.80;99.90
15341;DHT22;7770;52.158;5.372;2024-01-25T16:45:23;7.80;99.90
15341;DHT22;7770;52.158;5.372;2024-01-25T16:48:11;7.80;99.90
15341;DHT22;7770;52.158;5.372;2024-01-25T16:50:57;7.80;99.90
15341;DHT22;7770;52.158;5.372;2024-01-25T16:53:43;7.80;99.90
15341;DHT22;7770;52.158;5.372;2024-01-25T16:56:29;7.90;99.90
15341;DHT22;7770;52.158;5.372;2024-01-25T16:59:15;7.90;99.90
15341;DHT22;7770;52.158;5.372;2024-01-25T17:02:01;7.90;99.90
15341;DHT22;7770;52.158;5.372;2024-01-25T17:04:48;7.90;99.90
15341;DHT22;7770;52.158;5.372;2024-01-25T17:07:34;7.90;99.90
15341;DHT22;7770;52.158;5.372;2024-01-25T17:10:20;7.90;99.90
15341;DHT22;7770;52.158;5.372;2024-01-25T17:13:07;7.90;99.90
15341;DHT22;7770;52.158;5.372;2024-01-25T17:15:53;7.90;99.90
15341;DHT22;7770;52.158;5.372;2024-01-25T17:18:39;7.90;99.90
15341;DHT22;7770;52.158;5.372;2024-01-25T17:21:27;7.90;99.90
15341;DHT22;7770;52.158;5.372;2024-01-25T17:24:14;7.90;99.90
15341;DHT22;7770;52.158;5.372;2024-01-25T17:27:00;7.90;99.90
15341;DHT22;7770;52.158;5.372;2024-01-25T17:29:46;7.90;99.90
15341;DHT22;7770;52.158;5.372;2024-01-25T17:32:32;8.00;99.90
15341;DHT22;7770;52.158;5.372;2024-01-25T17:35:19;7.90;99.90
15341;DHT22;7770;52.158;5.372;2024-01-25T17:38:05;7.90;99.90
15341;DHT22;7770;52.158;5.372;2024-01-25T17:40:51;7.90;99.90
15341;DHT22;7770;52.158;5.372;2024-01-25T17:43:37;7.90;99.90
15341;DHT22;7770;52.158;5.372;2024-01-25T17:46:23;7.90;99.90
15341;DHT22;7770;52.158;5.372;2024-01-25T17:49:09;8.00;99.90
15341;DHT22;7770;52.158;5.372;2024-01-25T17:51:55;8.00;99.90
15341;DHT22;7770;52.158;5.372;2024-01-25T17:54:41;8.10;99.90
15341;DHT22;7770;52.158;5.372;2024-01-25T17:57:27;8.10;99.90
15341;DHT22;7770;52.158;5.372;2024-01-25T18:00:13;8.10;99.90
15341;DHT22;7770;52.158;5.372;2024-01-25T18:02:59;8.10;99.90
15341;DHT22;7770;52.158;5.372;2024-01-25T18:05:46;8.20;99.90